Time;durP1;ratioP1;P1;durP2;ratioP2;P2;SDS_P1;SDS_P2;PMS_P1;PMS_P2;Temp;Humidity;BMP_temperature;BMP_pressure;BME280_temperature;BME280_humidity;BME280_pressure;Samples;Min_cycle;Max_cycle;Signal;HPM_P1;HPM_P2
2022/10/24 00:01:28;;;;;;;7.47;1.00;;;13.80;99.90;;;;;;5076061;28;20173;-87
2022/10/24 00:03:53;;;;;;;3.60;0.83;;;13.80;99.90;;;;;;5075487;28;20266;-86
2022/10/24 00:06:19;;;;;;;3.30;0.60;;;13.80;99.90;;;;;;5075312;28;20220;-86
2022/10/24 00:08:45;;;;;;;2.93;1.00;;;13.70;99.90;;;;;;5074366;28;20174;-85
2022/10/24 00:11:14;;;;;;;2.10;0.70;;;13.70;99.90;;;;;;5073617;28;20504;-85
2022/10/24 00:13:41;;;;;;;2.87;1.10;;;13.70;99.90;;;;;;5075115;28;20463;-84
2022/10/24 00:16:07;;;;;;;2.90;1.50;;;13.70;99.90;;;;;;5074430;28;20462;-86
2022/10/24 00:18:33;;;;;;;3.40;1.40;;;13.70;99.90;;;;;;5075452;28;20415;-84
2022/10/24 00:20:58;;;;;;;5.50;2.07;;;13.70;99.90;;;;;;5057297;28;20416;-85
2022/10/24 00:23:24;;;;;;;4.60;1.07;;;13.70;99.90;;;;;;5075214;28;20175;-85
2022/10/24 00:25:49;;;;;;;3.00;0.73;;;13.70;99.90;;;;;;5075018;28;20639;-86
2022/10/24 00:28:15;;;;;;;3.77;1.20;;;13.70;99.90;;;;;;5075221;28;20638;-86
2022/10/24 00:30:40;;;;;;;3.87;1.20;;;13.70;99.90;;;;;;5075217;28;20183;-86
2022/10/24 00:33:09;;;;;;;5.07;1.03;;;13.70;99.90;;;;;;5075091;28;20210;-85
2022/10/24 00:35:34;;;;;;;3.10;1.10;;;13.70;99.90;;;;;;5074930;28;20167;-86
2022/10/24 00:38:00;;;;;;;4.60;1.23;;;13.70;99.90;;;;;;5075062;28;20407;-86
2022/10/24 00:40:25;;;;;;;5.83;1.30;;;13.60;99.90;;;;;;5074614;28;20630;-86
2022/10/24 00:42:51;;;;;;;2.77;1.00;;;13.70;99.90;;;;;;5074936;28;20256;-85
2022/10/24 00:45:40;;;;;;;4.23;1.80;;;13.70;99.90;;;;;;5074889;28;20622;-85
2022/10/24 00:48:16;;;;;;;2.07;1.60;;;13.70;99.90;;;;;;5074887;28;20169;-85
2022/10/24 00:50:43;;;;;;;3.53;1.00;;;13.70;99.90;;;;;;5074778;28;20401;-85
2022/10/24 00:53:09;;;;;;;7.33;1.57;;;13.70;99.90;;;;;;5074564;28;20513;-85
2022/10/24 00:55:34;;;;;;;2.93;1.53;;;13.70;99.90;;;;;;5074388;28;20408;-85
2022/10/24 00:58:01;;;;;;;4.00;1.13;;;13.70;99.90;;;;;;5074494;28;20646;-85
2022/10/24 01:00:31;;;;;;;6.43;1.73;;;13.70;99.90;;;;;;5074482;28;20253;-85
2022/10/24 01:02:57;;;;;;;2.83;1.40;;;13.60;99.90;;;;;;5073817;28;20773;-87
2022/10/24 01:05:25;;;;;;;2.10;0.77;;;13.60;99.90;;;;;;5074523;28;20457;-86
2022/10/24 01:07:59;;;;;;;2.87;0.70;;;13.50;99.90;;;;;;5056340;28;20471;-87
2022/10/24 01:11:06;;;;;;;3.90;1.33;;;13.50;99.90;;;;;;5074032;28;20754;-86
2022/10/24 01:13:53;;;;;;;2.27;1.20;;;13.50;99.90;;;;;;5063222;28;20605;-86
2022/10/24 01:16:38;;;;;;;3.13;0.60;;;13.50;99.90;;;;;;5074307;28;20414;-88
2022/10/24 01:19:50;;;;;;;4.50;1.03;;;13.40;99.90;;;;;;5056632;28;20439;-86
2022/10/24 01:22:35;;;;;;;3.60;0.70;;;13.40;99.90;;;;;;5064495;28;20425;-86
2022/10/24 01:25:16;;;;;;;3.07;0.73;;;13.30;99.90;;;;;;5073807;28;20423;-86
2022/10/24 01:28:02;;;;;;;3.23;1.40;;;13.30;99.90;;;;;;5074107;28;20427;-87
2022/10/24 01:30:36;;;;;;;3.57;1.57;;;13.30;99.90;;;;;;5074074;28;20818;-87
2022/10/24 01:33:14;;;;;;;3.17;1.77;;;13.30;99.90;;;;;;5073926;28;20566;-86
2022/10/24 01:35:53;;;;;;;1.97;0.80;;;13.30;99.90;;;;;;5073944;28;20403;-85
2022/10/24 01:38:28;;;;;;;3.70;0.87;;;13.20;99.90;;;;;;5056284;28;20434;-86
2022/10/24 01:40:59;;;;;;;2.17;1.30;;;13.20;99.90;;;;;;5073842;28;20424;-87
2022/10/24 01:43:29;;;;;;;1.83;1.07;;;13.20;99.90;;;;;;5073681;28;20457;-86
2022/10/24 01:45:59;;;;;;;3.50;0.70;;;13.10;99.90;;;;;;5073851;28;20408;-85
2022/10/24 01:48:27;;;;;;;3.37;1.27;;;13.10;99.90;;;;;;5073686;28;20503;-86
2022/10/24 01:50:54;;;;;;;3.00;0.73;;;13.10;99.90;;;;;;5073689;28;20403;-86
2022/10/24 01:53:22;;;;;;;1.87;0.80;;;13.10;99.90;;;;;;5073481;28;20833;-84
2022/10/24 01:55:48;;;;;;;2.60;0.97;;;13.00;99.90;;;;;;5073133;28;20397;-86
2022/10/24 01:58:14;;;;;;;4.43;1.37;;;13.00;99.90;;;;;;5055532;28;20433;-85
2022/10/24 02:00:42;;;;;;;6.10;1.43;;;12.90;99.90;;;;;;5055507;28;20768;-85
2022/10/24 02:03:21;;;;;;;1.60;0.70;;;12.90;99.90;;;;;;5055435;28;20176;-86
2022/10/24 02:05:57;;;;;;;3.77;0.90;;;12.80;99.90;;;;;;5073128;28;20428;-86
2022/10/24 02:08:28;;;;;;;2.47;0.90;;;12.80;99.90;;;;;;5073358;28;20418;-85
2022/10/24 02:11:01;;;;;;;5.73;1.40;;;12.80;99.90;;;;;;5072897;28;20417;-87
2022/10/24 02:13:34;;;;;;;2.30;1.03;;;12.80;99.90;;;;;;5072427;28;20504;-85
2022/10/24 02:16:01;;;;;;;2.10;0.90;;;12.80;99.90;;;;;;5073244;28;20419;-86
2022/10/24 02:18:28;;;;;;;1.77;1.27;;;12.70;99.90;;;;;;5055259;28;20427;-86
2022/10/24 02:21:01;;;;;;;3.37;0.90;;;12.70;99.90;;;;;;5073154;28;20412;-86
2022/10/24 02:23:36;;;;;;;4.77;1.17;;;12.70;99.90;;;;;;5055193;28;20515;-86
2022/10/24 02:26:06;;;;;;;2.80;0.87;;;12.70;99.90;;;;;;5073135;28;20412;-85
2022/10/24 02:28:37;;;;;;;2.53;1.00;;;12.70;99.90;;;;;;5055152;28;20430;-86
2022/10/24 02:31:09;;;;;;;2.40;0.93;;;12.60;99.90;;;;;;5073183;28;20457;-85
2022/10/24 02:33:39;;;;;;;4.07;0.73;;;12.60;99.90;;;;;;5073013;28;20525;-86
2022/10/24 02:36:07;;;;;;;2.30;1.00;;;12.60;99.90;;;;;;5055022;28;20420;-86
2022/10/24 02:38:37;;;;;;;3.30;1.07;;;12.60;99.90;;;;;;5054889;28;20997;-86
2022/10/24 02:41:07;;;;;;;3.43;0.67;;;12.60;99.90;;;;;;5055074;28;20443;-86
2022/10/24 02:43:34;;;;;;;2.70;0.90;;;12.50;99.90;;;;;;5073028;28;20403;-85
2022/10/24 02:46:01;;;;;;;1.47;0.57;;;12.50;99.90;;;;;;5072945;28;20504;-85
2022/10/24 02:48:32;;;;;;;3.43;1.17;;;12.40;99.90;;;;;;5055025;28;20518;-85
2022/10/24 02:50:58;;;;;;;2.60;1.00;;;12.40;99.90;;;;;;5072925;28;20492;-84
2022/10/24 02:53:25;;;;;;;4.43;1.30;;;12.50;99.90;;;;;;5054778;28;20473;-85
2022/10/24 02:55:50;;;;;;;2.30;1.13;;;12.50;99.90;;;;;;5072586;28;20419;-85
2022/10/24 02:58:16;;;;;;;2.30;0.77;;;12.40;99.90;;;;;;5072825;28;20419;-85
2022/10/24 03:00:42;;;;;;;3.30;0.70;;;12.40;99.90;;;;;;5072784;28;20229;-85
2022/10/24 03:03:07;;;;;;;4.17;1.10;;;12.40;99.90;;;;;;5072752;28;20181;-85
2022/10/24 03:05:33;;;;;;;6.40;1.50;;;12.40;99.90;;;;;;5072814;28;20176;-85
2022/10/24 03:07:59;;;;;;;1.60;1.23;;;12.40;99.90;;;;;;5072529;28;20571;-85
2022/10/24 03:10:24;;;;;;;2.17;0.80;;;12.40;99.90;;;;;;5072248;28;20181;-86
2022/10/24 03:12:50;;;;;;;2.00;1.27;;;12.40;99.90;;;;;;5054526;28;20306;-85
2022/10/24 03:15:15;;;;;;;2.50;0.70;;;12.40;99.90;;;;;;5072669;28;20253;-85
2022/10/24 03:17:41;;;;;;;4.20;0.50;;;12.50;99.90;;;;;;5072654;28;20171;-85
2022/10/24 03:20:07;;;;;;;2.13;1.37;;;12.40;99.90;;;;;;5072625;28;20220;-85
2022/10/24 03:22:33;;;;;;;2.47;0.87;;;12.40;99.90;;;;;;5072505;28;20176;-86
2022/10/24 03:25:01;;;;;;;7.10;1.53;;;12.40;99.90;;;;;;5056104;28;20505;-85
2022/10/24 03:27:27;;;;;;;2.93;1.10;;;12.50;99.90;;;;;;5076278;28;20168;-85
2022/10/24 03:29:53;;;;;;;2.70;0.87;;;12.40;99.90;;;;;;5076358;28;20414;-85
2022/10/24 03:32:18;;;;;;;4.97;0.63;;;12.40;99.90;;;;;;5076168;28;20461;-85
2022/10/24 03:34:44;;;;;;;2.50;0.97;;;12.40;99.90;;;;;;5076273;28;20251;-85
2022/10/24 03:37:09;;;;;;;2.77;1.10;;;12.40;99.90;;;;;;5076149;28;20691;-86
2022/10/24 03:39:35;;;;;;;2.47;1.10;;;12.40;99.90;;;;;;5075644;28;20184;-88
2022/10/24 03:42:01;;;;;;;2.53;1.03;;;12.50;99.90;;;;;;5076104;28;20638;-85
2022/10/24 03:44:26;;;;;;;3.20;1.00;;;12.50;99.90;;;;;;5058221;28;20663;-88
2022/10/24 03:46:52;;;;;;;5.90;1.03;;;12.40;99.90;;;;;;5076028;28;20173;-86
2022/10/24 03:49:17;;;;;;;2.60;0.90;;;12.50;99.90;;;;;;5075975;28;20526;-87
2022/10/24 03:51:43;;;;;;;3.30;1.13;;;12.40;99.90;;;;;;5075931;28;20166;-88
2022/10/24 03:54:09;;;;;;;4.03;0.80;;;12.50;99.90;;;;;;5075219;28;20212;-85
2022/10/24 03:56:35;;;;;;;3.20;0.87;;;12.50;99.90;;;;;;5075969;28;20199;-87
2022/10/24 03:59:00;;;;;;;2.10;0.80;;;12.50;99.90;;;;;;5075788;28;20446;-85
2022/10/24 04:01:26;;;;;;;4.40;0.93;;;12.60;99.90;;;;;;5075966;28;20176;-87
2022/10/24 04:03:51;;;;;;;3.87;0.77;;;12.50;99.90;;;;;;5075753;28;20649;-86
2022/10/24 04:06:17;;;;;;;4.10;1.07;;;12.60;99.90;;;;;;5075587;28;20624;-86
2022/10/24 04:08:42;;;;;;;7.60;1.50;;;12.60;99.90;;;;;;5075403;28;20172;-87
2022/10/24 04:11:08;;;;;;;2.53;0.50;;;12.60;99.90;;;;;;5057547;28;20177;-87
2022/10/24 04:13:33;;;;;;;2.03;1.23;;;12.60;99.90;;;;;;5075509;28;20209;-86
2022/10/24 04:15:59;;;;;;;3.80;1.17;;;12.60;99.90;;;;;;5057536;28;20181;-87
2022/10/24 04:18:24;;;;;;;3.30;1.30;;;12.60;99.90;;;;;;5075475;28;20629;-86
2022/10/24 04:20:50;;;;;;;4.53;1.13;;;12.60;99.90;;;;;;5075397;28;20161;-85
2022/10/24 04:23:15;;;;;;;3.00;1.10;;;12.50;99.90;;;;;;5075213;28;20183;-86
2022/10/24 04:25:41;;;;;;;5.30;1.07;;;12.50;99.90;;;;;;5075277;28;20222;-85
2022/10/24 04:28:07;;;;;;;8.60;2.47;;;12.40;99.90;;;;;;5075308;28;20169;-88
2022/10/24 04:30:32;;;;;;;4.50;1.40;;;12.40;99.90;;;;;;5075182;28;20523;-86
2022/10/24 04:32:58;;;;;;;2.40;0.77;;;12.40;99.90;;;;;;5075052;28;20203;-86
2022/10/24 04:35:24;;;;;;;4.73;1.63;;;12.30;99.90;;;;;;5056874;28;20173;-86
2022/10/24 04:37:50;;;;;;;6.00;1.20;;;12.30;99.90;;;;;;5074605;28;20169;-87
2022/10/24 04:40:16;;;;;;;4.47;1.00;;;12.30;99.90;;;;;;5056809;28;20428;-86
2022/10/24 04:42:41;;;;;;;4.10;1.40;;;12.20;99.90;;;;;;5075014;28;20179;-86
2022/10/24 04:45:07;;;;;;;3.40;0.70;;;12.20;99.90;;;;;;5074910;28;20199;-85
2022/10/24 04:47:33;;;;;;;2.83;0.90;;;12.20;99.90;;;;;;5074932;28;20180;-87
2022/10/24 04:49:58;;;;;;;3.67;1.03;;;12.10;99.90;;;;;;5056809;28;20419;-86
2022/10/24 04:52:24;;;;;;;1.70;0.73;;;12.20;99.90;;;;;;5074713;28;20218;-86
2022/10/24 04:54:49;;;;;;;6.50;0.77;;;12.10;99.90;;;;;;5074457;28;20208;-86
2022/10/24 04:57:15;;;;;;;2.87;1.07;;;12.20;99.90;;;;;;5074747;28;20569;-88
2022/10/24 04:59:40;;;;;;;3.33;1.13;;;12.20;99.90;;;;;;5074703;28;20658;-86
2022/10/24 05:02:06;;;;;;;2.33;0.90;;;12.40;99.90;;;;;;5074615;28;20210;-86
2022/10/24 05:04:31;;;;;;;3.23;0.90;;;12.50;99.90;;;;;;5074688;28;21006;-86
2022/10/24 05:06:56;;;;;;;3.43;1.53;;;12.60;99.90;;;;;;5074494;28;20297;-87
2022/10/24 05:09:22;;;;;;;3.70;1.60;;;12.70;99.90;;;;;;5075090;28;20564;-86
2022/10/24 05:11:47;;;;;;;11.50;1.50;;;12.70;99.90;;;;;;5057260;28;20180;-87
2022/10/24 05:14:13;;;;;;;2.40;1.00;;;12.70;99.90;;;;;;5057029;28;20266;-86
2022/10/24 05:16:39;;;;;;;5.90;1.27;;;12.70;99.90;;;;;;5074654;28;20534;-86
2022/10/24 05:19:04;;;;;;;4.77;1.43;;;12.70;99.90;;;;;;5075217;28;20172;-86
2022/10/24 05:21:31;;;;;;;5.50;1.13;;;12.80;99.90;;;;;;5074677;28;20659;-85
2022/10/24 05:24:00;;;;;;;5.87;1.67;;;12.80;99.90;;;;;;5056635;28;20538;-86
2022/10/24 05:26:25;;;;;;;11.57;1.73;;;12.80;99.90;;;;;;5074585;28;20418;-86
2022/10/24 05:28:51;;;;;;;4.70;1.77;;;12.80;99.90;;;;;;5074994;28;20416;-85
2022/10/24 05:31:16;;;;;;;4.77;1.40;;;12.70;99.90;;;;;;5074939;28;20186;-86
2022/10/24 05:33:41;;;;;;;6.90;1.53;;;12.80;99.90;;;;;;5074622;28;20574;-85
2022/10/24 05:36:07;;;;;;;4.60;2.03;;;12.90;99.90;;;;;;5074596;28;20252;-85
2022/10/24 05:38:33;;;;;;;3.87;1.10;;;12.80;99.90;;;;;;5073871;28;20634;-86
2022/10/24 05:40:58;;;;;;;3.60;1.33;;;12.80;99.90;;;;;;5074332;28;20204;-85
2022/10/24 05:43:24;;;;;;;5.87;1.47;;;12.80;99.90;;;;;;5074170;28;20256;-85
2022/10/24 05:45:49;;;;;;;5.40;1.60;;;12.80;99.90;;;;;;5074226;28;20176;-86
2022/10/24 05:48:15;;;;;;;4.83;2.30;;;12.80;99.90;;;;;;5056212;28;20175;-86
2022/10/24 05:50:41;;;;;;;4.60;1.10;;;12.80;99.90;;;;;;5074508;28;20624;-87
2022/10/24 05:53:07;;;;;;;3.37;1.33;;;12.80;99.90;;;;;;5073838;28;20602;-86
2022/10/24 05:55:35;;;;;;;3.90;1.80;;;12.90;99.90;;;;;;5074668;28;20411;-85
2022/10/24 05:58:01;;;;;;;5.43;1.70;;;12.90;99.90;;;;;;5074184;28;20174;-85
2022/10/24 06:00:26;;;;;;;4.60;1.10;;;12.90;99.90;;;;;;5056058;28;20426;-85
2022/10/24 06:02:52;;;;;;;3.30;1.10;;;12.90;99.90;;;;;;5056173;28;20424;-86
2022/10/24 06:05:18;;;;;;;6.47;1.13;;;13.00;99.90;;;;;;5056024;28;20238;-85
2022/10/24 06:07:44;;;;;;;12.80;1.67;;;13.00;99.90;;;;;;5055712;28;20762;-86
2022/10/24 06:10:11;;;;;;;4.70;1.30;;;13.00;99.90;;;;;;5074042;28;20173;-85
2022/10/24 06:12:37;;;;;;;2.07;1.20;;;13.00;99.90;;;;;;5073472;28;20556;-86
2022/10/24 06:15:05;;;;;;;7.50;1.77;;;13.00;99.90;;;;;;5055403;28;20462;-85
2022/10/24 06:17:30;;;;;;;4.07;1.43;;;13.00;99.90;;;;;;5073526;28;20165;-86
2022/10/24 06:19:56;;;;;;;3.77;1.30;;;13.00;99.90;;;;;;5073421;28;20833;-86
2022/10/24 06:22:26;;;;;;;3.37;0.90;;;13.10;99.90;;;;;;5073381;28;20167;-85
2022/10/24 06:24:52;;;;;;;4.60;1.57;;;13.10;99.90;;;;;;5072953;28;20168;-86
2022/10/24 06:27:18;;;;;;;4.10;1.50;;;13.00;99.90;;;;;;5073391;28;21014;-86
2022/10/24 06:29:43;;;;;;;3.20;1.23;;;13.10;99.90;;;;;;5073247;28;20279;-86
2022/10/24 06:32:09;;;;;;;5.30;1.20;;;13.20;99.90;;;;;;5073173;28;20625;-85
2022/10/24 06:34:34;;;;;;;7.87;1.17;;;13.30;99.90;;;;;;5073206;28;20643;-85
2022/10/24 06:37:00;;;;;;;2.77;0.97;;;13.30;99.90;;;;;;5073234;28;20171;-86
2022/10/24 06:39:26;;;;;;;7.63;1.27;;;13.40;99.90;;;;;;5072626;28;20169;-86
2022/10/24 06:41:51;;;;;;;5.80;1.30;;;13.30;99.90;;;;;;5073082;28;20416;-86
2022/10/24 06:44:17;;;;;;;6.33;2.00;;;13.40;99.90;;;;;;5059279;28;20179;-86
2022/10/24 06:46:43;;;;;;;4.87;1.73;;;13.40;99.90;;;;;;5066554;28;20714;-87
2022/10/24 06:49:08;;;;;;;4.30;1.40;;;13.40;99.90;;;;;;5054810;28;20182;-85
2022/10/24 06:51:34;;;;;;;7.60;1.97;;;13.50;99.90;;;;;;5052094;28;20182;-86
2022/10/24 06:53:59;;;;;;;2.73;1.20;;;13.60;99.90;;;;;;5065076;28;20489;-86
2022/10/24 06:56:25;;;;;;;4.30;1.47;;;13.60;99.90;;;;;;5060306;28;20200;-86
2022/10/24 06:58:51;;;;;;;8.93;2.07;;;13.60;99.90;;;;;;5062008;28;20229;-87
2022/10/24 07:01:23;;;;;;;3.50;1.50;;;13.60;99.90;;;;;;5066632;28;20215;-86
2022/10/24 07:03:49;;;;;;;4.10;1.23;;;13.70;99.90;;;;;;5065489;28;20273;-87
2022/10/24 07:06:22;;;;;;;4.03;1.57;;;13.80;99.90;;;;;;5052529;28;20813;-87
2022/10/24 07:08:47;;;;;;;4.50;1.43;;;13.80;99.90;;;;;;5053116;28;20440;-85
2022/10/24 07:11:13;;;;;;;3.77;1.27;;;13.80;99.90;;;;;;5056471;28;20454;-85
2022/10/24 07:13:39;;;;;;;3.40;2.30;;;13.90;99.90;;;;;;5056316;28;20205;-85
2022/10/24 07:16:05;;;;;;;5.50;1.30;;;13.90;99.90;;;;;;5056264;28;20421;-86
2022/10/24 07:18:31;;;;;;;2.00;0.83;;;13.90;99.90;;;;;;5056227;28;20291;-87
2022/10/24 07:21:09;;;;;;;3.17;0.93;;;14.00;99.90;;;;;;5038946;28;20543;-85
2022/10/24 07:23:34;;;;;;;3.10;1.23;;;14.10;99.90;;;;;;5036050;28;20653;-86
2022/10/24 07:26:02;;;;;;;4.23;0.90;;;14.10;99.90;;;;;;5036160;28;20406;-86
2022/10/24 07:28:27;;;;;;;3.87;0.83;;;14.10;99.90;;;;;;5036158;28;20174;-86
2022/10/24 07:30:53;;;;;;;2.67;0.73;;;14.30;99.90;;;;;;5038708;28;20418;-85
2022/10/24 07:33:18;;;;;;;2.50;0.93;;;14.50;99.90;;;;;;5036034;28;20625;-85
2022/10/24 07:35:44;;;;;;;2.10;0.53;;;14.70;99.90;;;;;;5041552;28;20172;-86
2022/10/24 07:38:09;;;;;;;6.57;1.80;;;14.90;99.90;;;;;;5055708;28;20176;-83
2022/10/24 07:40:35;;;;;;;3.30;1.13;;;15.00;99.90;;;;;;5056123;28;20179;-87
2022/10/24 07:43:00;;;;;;;4.20;1.30;;;15.10;99.90;;;;;;5046930;28;20204;-88
2022/10/24 07:45:27;;;;;;;2.30;0.70;;;15.00;99.90;;;;;;5055678;28;20247;-86
2022/10/24 07:47:52;;;;;;;2.33;1.20;;;15.00;99.90;;;;;;5055751;28;20166;-86
2022/10/24 07:50:18;;;;;;;3.73;1.20;;;15.20;99.90;;;;;;5055723;28;20422;-84
2022/10/24 07:52:44;;;;;;;5.60;2.30;;;15.20;99.90;;;;;;5055287;28;20675;-87
2022/10/24 07:55:09;;;;;;;3.47;0.70;;;15.40;99.90;;;;;;5055665;28;20825;-90
2022/10/24 07:57:35;;;;;;;3.10;0.80;;;15.60;99.90;;;;;;5055671;28;20656;-84
2022/10/24 08:00:00;;;;;;;3.57;0.60;;;15.90;99.90;;;;;;5055674;28;20710;-88
2022/10/24 08:02:26;;;;;;;2.70;0.70;;;16.60;99.90;;;;;;5055258;28;20250;-84
2022/10/24 08:04:51;;;;;;;4.53;1.57;;;17.00;99.90;;;;;;5055583;28;20175;-86
2022/10/24 08:07:17;;;;;;;6.10;0.80;;;17.70;99.90;;;;;;5068148;28;20224;-85
2022/10/24 08:09:45;;;;;;;3.27;1.27;;;17.50;99.90;;;;;;5075121;28;20223;-86
2022/10/24 08:12:10;;;;;;;3.70;0.70;;;17.50;99.90;;;;;;5074201;28;20172;-84
2022/10/24 08:14:37;;;;;;;2.03;0.47;;;18.50;1.00;;;;;;5075753;28;20414;-87
2022/10/24 08:17:03;;;;;;;4.33;1.00;;;18.90;1.00;;;;;;5075438;28;20242;-86
2022/10/24 08:19:29;;;;;;;2.87;0.50;;;19.70;99.90;;;;;;5075328;28;20420;-86
2022/10/24 08:21:55;;;;;;;7.83;0.70;;;19.70;99.90;;;;;;5075268;28;20418;-89
2022/10/24 08:24:20;;;;;;;5.23;1.20;;;19.40;1.00;;;;;;5074756;28;20413;-85
2022/10/24 08:26:46;;;;;;;5.17;1.13;;;19.30;99.90;;;;;;5075151;28;20580;-85
2022/10/24 08:29:13;;;;;;;3.77;0.60;;;20.00;99.90;;;;;;5075300;28;20168;-86
2022/10/24 08:31:40;;;;;;;2.77;0.53;;;21.00;99.90;;;;;;5075193;28;20506;-87
2022/10/24 08:34:05;;;;;;;2.20;0.90;;;21.60;87.50;;;;;;5074809;28;20461;-85
2022/10/24 08:36:34;;;;;;;3.00;0.37;;;22.50;1.00;;;;;;5074775;28;20418;-84
2022/10/24 08:39:00;;;;;;;2.43;1.27;;;22.40;1.00;;;;;;5074426;28;20165;-84
2022/10/24 08:41:36;;;;;;;3.03;0.70;;;22.60;1.00;;;;;;5074732;28;20407;-82
2022/10/24 08:44:06;;;;;;;2.93;0.33;;;22.40;1.00;;;;;;5074657;28;20417;-84
2022/10/24 08:46:41;;;;;;;1.83;0.60;;;22.80;1.00;;;;;;5074671;28;20419;-84
2022/10/24 08:49:28;;;;;;;2.03;0.90;;;22.20;1.00;;;;;;5074654;28;20829;-85
2022/10/24 08:51:57;;;;;;;2.83;0.33;;;20.00;1.00;;;;;;5074538;28;20409;-85
2022/10/24 08:54:28;;;;;;;2.63;1.30;;;19.40;1.00;;;;;;5073212;28;20835;-85
2022/10/24 08:56:56;;;;;;;4.13;0.57;;;19.80;18.90;;;;;;5068114;28;20480;-85
2022/10/24 08:59:24;;;;;;;3.10;0.93;;;19.20;1.00;;;;;;5065215;28;20455;-88
2022/10/24 09:01:55;;;;;;;3.60;0.87;;;18.90;1.00;;;;;;5070189;28;20414;-91
2022/10/24 09:04:23;;;;;;;3.03;0.57;;;19.30;1.00;;;;;;5063131;28;20784;-90
2022/10/24 09:06:51;;;;;;;2.57;0.73;;;20.70;99.90;;;;;;5062723;28;20804;-89
2022/10/24 09:09:22;;;;;;;2.73;0.60;;;22.60;1.00;;;;;;5066499;28;20418;-88
2022/10/24 09:11:59;;;;;;;2.17;0.73;;;20.50;1.00;;;;;;5053814;28;20462;-86
2022/10/24 09:14:31;;;;;;;2.17;0.90;;;19.10;99.90;;;;;;5054087;28;20432;-85
2022/10/24 09:17:18;;;;;;;5.13;0.83;;;18.60;1.00;;;;;;5065303;28;20399;-85
2022/10/24 09:19:55;;;;;;;5.17;1.00;;;18.50;1.00;;;;;;5068446;28;20779;-87
2022/10/24 09:22:22;;;;;;;3.43;1.27;;;19.90;1.00;;;;;;5059827;28;20409;-86
2022/10/24 09:24:59;;;;;;;2.83;0.63;;;20.10;1.00;;;;;;5063506;28;20791;-86
2022/10/24 09:27:29;;;;;;;3.23;0.63;;;21.30;99.90;;;;;;5067758;28;20405;-85
2022/10/24 09:29:56;;;;;;;4.60;1.87;;;21.60;99.90;;;;;;5072111;28;20421;-85
2022/10/24 09:32:25;;;;;;;2.57;0.40;;;21.00;1.00;;;;;;5073834;28;20553;-85
2022/10/24 09:34:51;;;;;;;2.13;0.60;;;19.50;99.90;;;;;;5073936;28;20778;-85
2022/10/24 09:37:29;;;;;;;3.00;1.20;;;18.70;1.00;;;;;;5066830;28;20421;-85
2022/10/24 09:40:07;;;;;;;2.40;0.30;;;18.50;1.00;;;;;;5062899;28;20802;-86
2022/10/24 09:42:34;;;;;;;3.10;1.97;;;18.30;1.00;;;;;;5058250;28;20844;-86
2022/10/24 09:45:00;;;;;;;4.77;0.63;;;18.20;1.00;;;;;;5064797;28;20482;-87
2022/10/24 09:47:28;;;;;;;2.93;0.50;;;18.40;29.10;;;;;;5073381;28;20418;-85
2022/10/24 09:49:54;;;;;;;3.93;0.57;;;18.40;1.00;;;;;;5074581;28;20464;-86
2022/10/24 09:52:27;;;;;;;3.30;0.90;;;18.30;1.00;;;;;;5074096;28;20885;-86
2022/10/24 09:55:19;;;;;;;4.10;0.70;;;18.30;1.00;;;;;;5074341;28;20832;-87
2022/10/24 09:57:44;;;;;;;3.07;0.40;;;18.20;1.00;;;;;;5075840;28;20412;-89
2022/10/24 10:00:26;;;;;;;3.77;0.90;;;18.40;1.00;;;;;;5074699;28;20414;-90
2022/10/24 10:03:12;;;;;;;3.33;0.53;;;19.10;99.90;;;;;;5057169;28;20172;-88
2022/10/24 10:05:47;;;;;;;8.53;0.80;;;18.70;99.90;;;;;;5058034;28;20505;-91
2022/10/24 10:08:23;;;;;;;2.83;0.33;;;18.70;99.90;;;;;;5075008;28;20419;-90
2022/10/24 10:11:05;;;;;;;2.53;0.30;;;18.60;1.00;;;;;;5074911;28;20434;-88
2022/10/24 10:13:53;;;;;;;3.80;1.40;;;18.70;1.00;;;;;;5075350;28;20470;-88
2022/10/24 10:16:25;;;;;;;2.50;0.47;;;18.80;99.90;;;;;;5075701;28;20498;-88
2022/10/24 10:19:00;;;;;;;2.93;0.40;;;19.40;1.00;;;;;;5074285;28;20425;-88
2022/10/24 10:21:25;;;;;;;2.50;0.30;;;21.30;90.90;;;;;;5074380;28;20433;-91
2022/10/24 10:23:54;;;;;;;2.20;0.40;;;24.30;99.90;;;;;;5073851;28;20422;-89
2022/10/24 10:26:29;;;;;;;2.93;0.73;;;25.20;99.90;;;;;;5074302;28;20247;-91
2022/10/24 10:28:59;;;;;;;3.57;0.33;;;24.80;99.90;;;;;;5074693;28;20923;-88
2022/10/24 10:31:58;;;;;;;1.77;0.40;;;23.30;99.90;;;;;;5074370;28;20494;-88
2022/10/24 10:34:49;;;;;;;1.90;0.40;;;21.70;99.90;;;;;;5073219;28;20822;-85
2022/10/24 10:37:22;;;;;;;2.23;0.30;;;22.30;99.90;;;;;;5073932;28;20446;-91
2022/10/24 10:40:06;;;;;;;2.47;0.30;;;21.20;1.00;;;;;;5073955;28;20772;-92
2022/10/24 10:42:31;;;;;;;2.60;2.23;;;20.80;1.00;;;;;;5056300;28;20792;-89
2022/10/24 10:45:08;;;;;;;1.43;0.40;;;20.90;1.00;;;;;;5074195;28;20488;-88
2022/10/24 10:48:01;;;;;;;2.00;0.60;;;21.80;1.00;;;;;;5074404;28;20178;-87
2022/10/24 10:51:02;;;;;;;2.67;0.50;;;21.80;99.90;;;;;;5073816;28;20410;-91
2022/10/24 10:53:50;;;;;;;3.50;0.20;;;21.00;99.90;;;;;;5073644;28;20470;-87
2022/10/24 10:56:31;;;;;;;2.50;0.50;;;21.20;1.00;;;;;;5074555;28;20403;-89
2022/10/24 10:59:18;;;;;;;2.40;0.33;;;20.90;1.00;;;;;;5073192;28;20401;-90
2022/10/24 11:02:31;;;;;;;1.70;0.40;;;21.00;1.00;;;;;;5073091;28;20906;-92
2022/10/24 11:05:15;;;;;;;1.77;0.43;;;20.80;1.00;;;;;;5082435;28;20425;-88
2022/10/24 11:08:03;;;;;;;1.53;0.20;;;20.40;1.00;;;;;;5074419;28;20526;-87
2022/10/24 11:10:35;;;;;;;1.20;0.30;;;20.40;75.00;;;;;;5073151;28;20757;-87
2022/10/24 11:13:06;;;;;;;1.60;0.43;;;20.20;1.00;;;;;;5055641;28;20473;-91
2022/10/24 11:15:44;;;;;;;1.33;0.37;;;20.40;1.00;;;;;;5072714;28;20414;-87
2022/10/24 11:18:21;;;;;;;1.83;0.30;;;20.20;1.00;;;;;;5054755;28;20426;-86
2022/10/24 11:20:54;;;;;;;4.20;0.40;;;20.30;1.00;;;;;;5072590;28;20422;-87
2022/10/24 11:23:30;;;;;;;2.00;0.30;;;20.30;1.00;;;;;;5072367;28;20431;-86
2022/10/24 11:26:18;;;;;;;0.87;0.20;;;20.20;1.00;;;;;;5072728;28;20774;-87
2022/10/24 11:29:02;;;;;;;2.73;0.20;;;20.20;1.00;;;;;;5073050;28;20418;-87
2022/10/24 11:31:46;;;;;;;2.40;0.60;;;20.30;1.00;;;;;;5054667;28;20434;-91
2022/10/24 11:34:23;;;;;;;3.30;0.20;;;20.10;1.00;;;;;;5072729;28;20861;-88
2022/10/24 11:37:04;;;;;;;2.90;0.27;;;19.80;1.00;;;;;;5054850;28;20887;-90
2022/10/24 11:39:35;;;;;;;1.90;0.43;;;19.70;1.00;;;;;;5054955;28;20806;-89
2022/10/24 11:42:10;;;;;;;2.10;0.20;;;19.70;99.90;;;;;;5073057;28;20409;-91
2022/10/24 11:44:46;;;;;;;2.57;0.20;;;19.70;1.00;;;;;;5055410;28;20420;-90
2022/10/24 11:47:24;;;;;;;3.60;0.60;;;19.70;99.90;;;;;;5059189;28;20420;-90
2022/10/24 11:50:05;;;;;;;3.20;0.40;;;19.50;99.90;;;;;;5059665;28;20472;-90
2022/10/24 11:52:37;;;;;;;2.13;0.30;;;19.20;99.90;;;;;;5058763;28;20450;-91
2022/10/24 11:55:22;;;;;;;2.20;0.50;;;19.20;99.90;;;;;;5076896;28;20419;-91
2022/10/24 11:57:52;;;;;;;2.50;0.30;;;19.00;22.30;;;;;;5077077;28;20419;-94
2022/10/24 12:00:22;;;;;;;3.90;0.90;;;19.00;99.90;;;;;;5076904;28;20400;-91
2022/10/24 12:03:07;;;;;;;3.27;0.20;;;18.90;1.00;;;;;;5076795;28;20424;-91
2022/10/24 12:05:46;;;;;;;0.73;0.20;;;18.80;99.90;;;;;;5059127;28;20412;-92
2022/10/24 12:08:21;;;;;;;4.40;0.30;;;18.70;99.90;;;;;;5076262;28;20434;-92
2022/10/24 12:11:05;;;;;;;1.83;0.40;;;18.60;99.90;;;;;;5076595;28;20407;-90
2022/10/24 12:14:01;;;;;;;1.00;0.20;;;18.50;1.00;;;;;;5076176;28;20486;-92
2022/10/24 12:16:36;;;;;;;2.40;0.40;;;18.50;1.00;;;;;;5076595;28;20429;-91
2022/10/24 12:19:04;;;;;;;3.00;0.20;;;18.70;99.90;;;;;;5057578;28;20419;-90
2022/10/24 12:21:40;;;;;;;2.53;0.20;;;18.80;99.90;;;;;;5058430;28;20513;-92
2022/10/24 12:24:19;;;;;;;0.67;0.20;;;18.70;1.00;;;;;;5057925;28;20778;-92
2022/10/24 12:26:54;;;;;;;0.93;0.20;;;18.80;99.90;;;;;;5076297;28;20744;-90
2022/10/24 12:29:24;;;;;;;4.33;0.20;;;18.70;1.00;;;;;;5076339;28;20425;-89
2022/10/24 12:31:51;;;;;;;2.67;0.20;;;18.70;99.90;;;;;;5075653;28;20437;-89
2022/10/24 12:34:20;;;;;;;3.87;0.60;;;18.80;99.90;;;;;;5076134;28;20467;-89
2022/10/24 12:37:10;;;;;;;1.50;0.30;;;18.60;99.90;;;;;;5065310;28;20412;-92
2022/10/24 12:39:43;;;;;;;2.83;0.50;;;18.50;1.00;;;;;;5083235;28;20427;-90
2022/10/24 12:42:33;;;;;;;1.10;0.20;;;18.60;99.90;;;;;;5083242;28;20472;-90
2022/10/24 12:44:58;;;;;;;4.43;0.40;;;18.60;1.00;;;;;;5082051;28;20434;-91
2022/10/24 12:48:02;;;;;;;2.60;0.57;;;18.60;1.00;;;;;;5066478;28;20421;-91
2022/10/24 12:50:28;;;;;;;2.20;0.20;;;18.40;99.90;;;;;;5064796;28;20256;-91
2022/10/24 12:53:04;;;;;;;1.90;0.33;;;18.40;1.00;;;;;;5059197;28;20459;-91
2022/10/24 12:55:35;;;;;;;0.53;0.20;;;18.30;99.90;;;;;;5065914;28;20162;-93
2022/10/24 12:58:23;;;;;;;2.23;0.20;;;18.20;99.90;;;;;;5066342;28;20411;-90
2022/10/24 13:00:57;;;;;;;5.03;0.20;;;18.20;1.00;;;;;;5057548;28;20925;-90
2022/10/24 13:03:59;;;;;;;3.40;0.67;;;18.40;99.90;;;;;;5039143;28;20777;-89
2022/10/24 13:06:45;;;;;;;1.70;0.20;;;18.80;1.00;;;;;;5056457;28;20467;-91